Tropical Cyclones
[Index]
Main Index Home Page Stock Weather Photos Extreme Storms Discussion Storm News and Storm Chasing Reports Tropical Cyclones / Hurricanes / Typhoons Weather Data and Links Wild Fires / Bushfires Weather Observation Techniques Weather Picture Catalogue Tornado Pictures and Reports Stock Video Footage and DVDs for sale
Season 1950-1951 Tropical Cyclone 195125 Track Map
Season 1950-1951 Summaries: [BoM-AU] [JTWC-AU] [JTWC-SIO] [JTWC-SPAC] [JTWC-SH]
<<- Previous TC | JTWC 1950-1951 Season | Next TC ->>

click for intensity scale information  Lat/long Grid: Show Hide

 Date Labels: Show Hide

Joint Typhoon Warning Centre Cyclone Data

Name: 195125
Number: 154 / 5125

24 Mar 1951 00:00 UTC to 31 Mar 1951 18:00 UTC

    date/time    lat    long     hPa   cat  kts
1951-03-24 00    7.6   158.2                              
1951-03-24 06    7.9   158.2                              
1951-03-24 12    8.1   158.1                              
1951-03-24 18    8.4   158.0                              
1951-03-25 00    8.6   157.7                              
1951-03-25 06    8.8   157.4                              
1951-03-25 12    9.0   157.0                              
1951-03-25 18    9.2   156.7                              
1951-03-26 00    9.3   156.3                              
1951-03-26 06    9.6   156.0                              
1951-03-26 12   10.0   155.8                              
1951-03-26 18   10.2   155.5                              
1951-03-27 00   10.7   155.2                              
1951-03-27 06   11.3   154.8                              
1951-03-27 12   11.9   154.4                              
1951-03-27 18   12.5   154.2                              
1951-03-28 00   13.1   153.8                              
1951-03-28 06   13.7   153.4                              
1951-03-28 12   14.3   153.0                              
1951-03-28 18   15.2   152.6                              
1951-03-29 00   15.8   152.2                              
1951-03-29 06   16.1   152.1                              
1951-03-29 12   16.4   152.1                              
1951-03-29 18   16.7   152.1                              
1951-03-30 00   17.1   152.4                              
1951-03-30 06   18.1   153.4                              
1951-03-30 12   19.1   154.6                              
1951-03-30 18   19.6   155.9                              
1951-03-31 00   20.1   157.2                              
1951-03-31 06   20.7   158.6                              
1951-03-31 12   21.4   159.9                              
1951-03-31 18   22.5   161.2                              
Winds are 1-min average.

Tropical cyclone tracks developed by Michael Bath using data from the Joint Typhoon Warning Centre Best Tracks and Google Maps.


[Australian Severe Weather index] [Copyright Notice] [Email Contacts] [Search This Site] [Privacy Policy]
Document: tropical_cyclone_195125.htm Updated: 18 September 2016